Fort Sill, Oklahoma
Current Conditions -  °F | °C
As of 4:58 AM on Thursday 18 Dec 2014 (Local Time) from KFSI Reporting Station
Haze Haze  
Wind Chill: 33°   Ceiling: 200
Heat Index: 39°   Visibility: 4mi
Dew Point: 39°   Wind: 8mph
Humidity: 100%   Direction: 120°ESE
Pressure: 30.07"   Gusts: NA
Location:  34.66°N, 98.38°W
Report Text: KFSI 181058Z AUTO 12007KT 4SM BR OVC002 04/04 A3007 RMK AO2 SLP188 T00370037
Loading
Personal Weather Stations






























Interactive Weather Map New forecast layout! Learn more

10-Day Weather Forecast

Advertisements
Track Severe Weather on mobile